<?xml version="1.0" encoding="UTF-8" standalone="no" ?><gpx xmlns="http://www.topografix.com/GPX/1/1" xmlns:gpxx="http://www.garmin.com/xmlschemas/GpxExtensions/v3" xmlns:wptx1="http://www.garmin.com/xmlschemas/WaypointExtension/v1" xmlns:gpxtpx="http://www.garmin.com/xmlschemas/TrackPointExtension/v1" creator="GuideVTT.com" version="1.1" xmlns:xsi="http://www.w3.org/2001/XMLSchema-instance" xsi:schemaLocation="http://www.topografix.com/GPX/1/1 http://www.topografix.com/GPX/1/1/gpx.xsd http://www.garmin.com/xmlschemas/GpxExtensions/v3 http://www8.garmin.com/xmlschemas/GpxExtensionsv3.xsd http://www.garmin.com/xmlschemas/WaypointExtension/v1 http://www8.garmin.com/xmlschemas/WaypointExtensionv1.xsd http://www.garmin.com/xmlschemas/TrackPointExtension/v1 http://www.garmin.com/xmlschemas/TrackPointExtensionv1.xsd">
<metadata><link href="http://www.garmin.com"><text>Garmin International</text></link><time>2013-06-22T15:13:50Z</time></metadata>
<trk><name>jungfrauregion_359.gpx</name><extensions><gpxx:TrackExtension><gpxx:DisplayColor>Cyan</gpxx:DisplayColor></gpxx:TrackExtension></extensions><trkseg>
<trkpt lat="46.624541413" lon="8.033638028"><ele></ele><time>2014-4-14T20:51:15Z</time></trkpt>
<trkpt lat="46.624373440" lon="8.034785176"><ele></ele><time>2014-4-14T20:51:18Z</time></trkpt>
<trkpt lat="46.623537010" lon="8.034762880"><ele></ele><time>2014-4-14T20:51:21Z</time></trkpt>
<trkpt lat="46.623458304" lon="8.034331212"><ele></ele><time>2014-4-14T20:51:24Z</time></trkpt>
<trkpt lat="46.623839010" lon="8.033773899"><ele></ele><time>2014-4-14T20:51:27Z</time></trkpt>
<trkpt lat="46.623259401" lon="8.032801347"><ele></ele><time>2014-4-14T20:51:30Z</time></trkpt>
<trkpt lat="46.622632015" lon="8.030627081"><ele></ele><time>2014-4-14T20:51:33Z</time></trkpt>
<trkpt lat="46.621634485" lon="8.030420300"><ele></ele><time>2014-4-14T20:51:36Z</time></trkpt>
<trkpt lat="46.621603556" lon="8.025967749"><ele></ele><time>2014-4-14T20:51:39Z</time></trkpt>
<trkpt lat="46.621372718" lon="8.025377663"><ele></ele><time>2014-4-14T20:51:42Z</time></trkpt>
<trkpt lat="46.621865239" lon="8.024077378"><ele></ele><time>2014-4-14T20:51:45Z</time></trkpt>
<trkpt lat="46.621733140" lon="8.023514533"><ele></ele><time>2014-4-14T20:51:48Z</time></trkpt>
<trkpt lat="46.622302691" lon="8.021209678"><ele></ele><time>2014-4-14T20:51:51Z</time></trkpt>
<trkpt lat="46.622045450" lon="8.018739196"><ele></ele><time>2014-4-14T20:51:54Z</time></trkpt>
<trkpt lat="46.621189993" lon="8.017137162"><ele></ele><time>2014-4-14T20:51:57Z</time></trkpt>
<trkpt lat="46.621446311" lon="8.014489487"><ele></ele><time>2014-4-14T20:52:0Z</time></trkpt>
<trkpt lat="46.621951405" lon="8.012444973"><ele></ele><time>2014-4-14T20:52:3Z</time></trkpt>
<trkpt lat="46.624700418" lon="8.009601580"><ele></ele><time>2014-4-14T20:52:6Z</time></trkpt>
<trkpt lat="46.625267118" lon="8.007805673"><ele></ele><time>2014-4-14T20:52:9Z</time></trkpt>
<trkpt lat="46.626244113" lon="8.006706135"><ele></ele><time>2014-4-14T20:52:12Z</time></trkpt>
<trkpt lat="46.627052044" lon="8.007054068"><ele></ele><time>2014-4-14T20:52:15Z</time></trkpt>
<trkpt lat="46.627712119" lon="8.006368931"><ele></ele><time>2014-4-14T20:52:18Z</time></trkpt>
<trkpt lat="46.628080504" lon="8.004649216"><ele></ele><time>2014-4-14T20:52:21Z</time></trkpt>
<trkpt lat="46.629562844" lon="8.003241308"><ele></ele><time>2014-4-14T20:52:24Z</time></trkpt>
<trkpt lat="46.630283687" lon="8.001172571"><ele></ele><time>2014-4-14T20:52:27Z</time></trkpt>
<trkpt lat="46.631737193" lon="8.000129946"><ele></ele><time>2014-4-14T20:52:30Z</time></trkpt>
<trkpt lat="46.632104991" lon="7.998514501"><ele></ele><time>2014-4-14T20:52:33Z</time></trkpt>
<trkpt lat="46.632782333" lon="7.997973030"><ele></ele><time>2014-4-14T20:52:36Z</time></trkpt>
<trkpt lat="46.634288477" lon="7.995350584"><ele></ele><time>2014-4-14T20:52:39Z</time></trkpt>
<trkpt lat="46.635188358" lon="7.989731189"><ele></ele><time>2014-4-14T20:52:42Z</time></trkpt>
<trkpt lat="46.635191040" lon="7.987315189"><ele></ele><time>2014-4-14T20:52:45Z</time></trkpt>
<trkpt lat="46.634932291" lon="7.985000946"><ele></ele><time>2014-4-14T20:52:48Z</time></trkpt>
<trkpt lat="46.634491319" lon="7.985035731"><ele></ele><time>2014-4-14T20:52:51Z</time></trkpt>
<trkpt lat="46.634307923" lon="7.983884644"><ele></ele><time>2014-4-14T20:52:54Z</time></trkpt>
<trkpt lat="46.634500287" lon="7.979381047"><ele></ele><time>2014-4-14T20:52:57Z</time></trkpt>
<trkpt lat="46.634253692" lon="7.978268517"><ele></ele><time>2014-4-14T20:53:0Z</time></trkpt>
<trkpt lat="46.634715199" lon="7.977685472"><ele></ele><time>2014-4-14T20:53:3Z</time></trkpt>
<trkpt lat="46.635104790" lon="7.975194957"><ele></ele><time>2014-4-14T20:53:6Z</time></trkpt>
<trkpt lat="46.635651961" lon="7.975539956"><ele></ele><time>2014-4-14T20:53:9Z</time></trkpt>
<trkpt lat="46.636336930" lon="7.975259414"><ele></ele><time>2014-4-14T20:53:12Z</time></trkpt>
<trkpt lat="46.636309773" lon="7.973378515"><ele></ele><time>2014-4-14T20:53:15Z</time></trkpt>
<trkpt lat="46.636951240" lon="7.970864279"><ele></ele><time>2014-4-14T20:53:18Z</time></trkpt>
<trkpt lat="46.636812016" lon="7.969857361"><ele></ele><time>2014-4-14T20:53:21Z</time></trkpt>
<trkpt lat="46.637475360" lon="7.968427241"><ele></ele><time>2014-4-14T20:53:24Z</time></trkpt>
<trkpt lat="46.637917673" lon="7.966172174"><ele></ele><time>2014-4-14T20:53:27Z</time></trkpt>
<trkpt lat="46.638461659" lon="7.965250164"><ele></ele><time>2014-4-14T20:53:30Z</time></trkpt>
<trkpt lat="46.637793118" lon="7.958034435"><ele></ele><time>2014-4-14T20:53:33Z</time></trkpt>
<trkpt lat="46.638647737" lon="7.952073980"><ele></ele><time>2014-4-14T20:53:36Z</time></trkpt>
<trkpt lat="46.638224870" lon="7.950084787"><ele></ele><time>2014-4-14T20:53:39Z</time></trkpt>
<trkpt lat="46.638101907" lon="7.943370715"><ele></ele><time>2014-4-14T20:53:42Z</time></trkpt>
<trkpt lat="46.637666719" lon="7.942099767"><ele></ele><time>2014-4-14T20:53:45Z</time></trkpt>
<trkpt lat="46.637709886" lon="7.940467643"><ele></ele><time>2014-4-14T20:53:48Z</time></trkpt>
<trkpt lat="46.637400594" lon="7.939197952"><ele></ele><time>2014-4-14T20:53:51Z</time></trkpt>
<trkpt lat="46.637578206" lon="7.935621142"><ele></ele><time>2014-4-14T20:53:54Z</time></trkpt>
<trkpt lat="46.637983387" lon="7.933469927"><ele></ele><time>2014-4-14T20:53:57Z</time></trkpt>
<trkpt lat="46.637582146" lon="7.930566855"><ele></ele><time>2014-4-14T20:54:0Z</time></trkpt>
<trkpt lat="46.636709422" lon="7.928521587"><ele></ele><time>2014-4-14T20:54:3Z</time></trkpt>
<trkpt lat="46.636756193" lon="7.925988408"><ele></ele><time>2014-4-14T20:54:6Z</time></trkpt>
<trkpt lat="46.635773163" lon="7.920233309"><ele></ele><time>2014-4-14T20:54:9Z</time></trkpt>
<trkpt lat="46.633278709" lon="7.916593719"><ele></ele><time>2014-4-14T20:54:12Z</time></trkpt>
<trkpt lat="46.631721016" lon="7.912623128"><ele></ele><time>2014-4-14T20:54:15Z</time></trkpt>
<trkpt lat="46.631877003" lon="7.911893232"><ele></ele><time>2014-4-14T20:54:18Z</time></trkpt>
<trkpt lat="46.632174142" lon="7.911830535"><ele></ele><time>2014-4-14T20:54:21Z</time></trkpt>
<trkpt lat="46.632379666" lon="7.909991043"><ele></ele><time>2014-4-14T20:54:24Z</time></trkpt>
<trkpt lat="46.633631168" lon="7.907546796"><ele></ele><time>2014-4-14T20:54:27Z</time></trkpt>
<trkpt lat="46.634029057" lon="7.904846985"><ele></ele><time>2014-4-14T20:54:30Z</time></trkpt>
<trkpt lat="46.634381600" lon="7.904419089"><ele></ele><time>2014-4-14T20:54:33Z</time></trkpt>
<trkpt lat="46.633724123" lon="7.902402319"><ele></ele><time>2014-4-14T20:54:36Z</time></trkpt>
<trkpt lat="46.634320579" lon="7.899508215"><ele></ele><time>2014-4-14T20:54:39Z</time></trkpt>
<trkpt lat="46.634117234" lon="7.898644628"><ele></ele><time>2014-4-14T20:54:42Z</time></trkpt>
<trkpt lat="46.633077795" lon="7.899863273"><ele></ele><time>2014-4-14T20:54:45Z</time></trkpt>
<trkpt lat="46.632890794" lon="7.899391539"><ele></ele><time>2014-4-14T20:54:48Z</time></trkpt>
<trkpt lat="46.630644109" lon="7.901056940"><ele></ele><time>2014-4-14T20:54:51Z</time></trkpt>
<trkpt lat="46.629115250" lon="7.903159289"><ele></ele><time>2014-4-14T20:54:54Z</time></trkpt>
<trkpt lat="46.627266118" lon="7.904383885"><ele></ele><time>2014-4-14T20:54:57Z</time></trkpt>
<trkpt lat="46.624997640" lon="7.904782193"><ele></ele><time>2014-4-14T20:55:0Z</time></trkpt>
<trkpt lat="46.623937665" lon="7.904407438"><ele></ele><time>2014-4-14T20:55:3Z</time></trkpt>
<trkpt lat="46.621760465" lon="7.904467033"><ele></ele><time>2014-4-14T20:55:6Z</time></trkpt>
<trkpt lat="46.621081280" lon="7.903364478"><ele></ele><time>2014-4-14T20:55:9Z</time></trkpt>
<trkpt lat="46.619761549" lon="7.902713371"><ele></ele><time>2014-4-14T20:55:12Z</time></trkpt>
<trkpt lat="46.617912836" lon="7.903846353"><ele></ele><time>2014-4-14T20:55:15Z</time></trkpt>
<trkpt lat="46.616253303" lon="7.902683280"><ele></ele><time>2014-4-14T20:55:18Z</time></trkpt>
<trkpt lat="46.614081385" lon="7.903669830"><ele></ele><time>2014-4-14T20:55:21Z</time></trkpt>
<trkpt lat="46.611856157" lon="7.902253959"><ele></ele><time>2014-4-14T20:55:24Z</time></trkpt>
<trkpt lat="46.610440705" lon="7.903025011"><ele></ele><time>2014-4-14T20:55:27Z</time></trkpt>
<trkpt lat="46.608991893" lon="7.903143112"><ele></ele><time>2014-4-14T20:55:30Z</time></trkpt>
<trkpt lat="46.608233415" lon="7.903854484"><ele></ele><time>2014-4-14T20:55:33Z</time></trkpt>
<trkpt lat="46.607416598" lon="7.905596578"><ele></ele><time>2014-4-14T20:55:36Z</time></trkpt>
<trkpt lat="46.605705936" lon="7.905960269"><ele></ele><time>2014-4-14T20:55:39Z</time></trkpt>
<trkpt lat="46.604731120" lon="7.906761076"><ele></ele><time>2014-4-14T20:55:42Z</time></trkpt>
<trkpt lat="46.603326062" lon="7.907179669"><ele></ele><time>2014-4-14T20:55:45Z</time></trkpt>
<trkpt lat="46.601402080" lon="7.906915052"><ele></ele><time>2014-4-14T20:55:48Z</time></trkpt>
<trkpt lat="46.600392731" lon="7.907349989"><ele></ele><time>2014-4-14T20:55:51Z</time></trkpt>
<trkpt lat="46.599252373" lon="7.909036763"><ele></ele><time>2014-4-14T20:55:54Z</time></trkpt>
<trkpt lat="46.598996390" lon="7.910013339"><ele></ele><time>2014-4-14T20:55:57Z</time></trkpt>
<trkpt lat="46.598691456" lon="7.909801863"><ele></ele><time>2014-4-14T20:56:0Z</time></trkpt>
<trkpt lat="46.598847611" lon="7.909020167"><ele></ele><time>2014-4-14T20:56:3Z</time></trkpt>
<trkpt lat="46.600116882" lon="7.906616740"><ele></ele><time>2014-4-14T20:56:6Z</time></trkpt>
<trkpt lat="46.598826572" lon="7.907584431"><ele></ele><time>2014-4-14T20:56:9Z</time></trkpt>
<trkpt lat="46.593736326" lon="7.907240186"><ele></ele><time>2014-4-14T20:56:12Z</time></trkpt>
<trkpt lat="46.592790680" lon="7.907505976"><ele></ele><time>2014-4-14T20:56:15Z</time></trkpt>
<trkpt lat="46.592671992" lon="7.907935632"><ele></ele><time>2014-4-14T20:56:18Z</time></trkpt>
<trkpt lat="46.593604060" lon="7.908791928"><ele></ele><time>2014-4-14T20:56:21Z</time></trkpt>
<trkpt lat="46.592264799" lon="7.910685400"><ele></ele><time>2014-4-14T20:56:24Z</time></trkpt>
<trkpt lat="46.588629819" lon="7.913028477"><ele></ele><time>2014-4-14T20:56:27Z</time></trkpt>
<trkpt lat="46.587012783" lon="7.914645346"><ele></ele><time>2014-4-14T20:56:30Z</time></trkpt>
<trkpt lat="46.583932601" lon="7.915518489"><ele></ele><time>2014-4-14T20:56:33Z</time></trkpt>
<trkpt lat="46.583188036" lon="7.915029153"><ele></ele><time>2014-4-14T20:56:36Z</time></trkpt>
<trkpt lat="46.580858370" lon="7.914969558"><ele></ele><time>2014-4-14T20:56:39Z</time></trkpt>
<trkpt lat="46.575987479" lon="7.913830876"><ele></ele><time>2014-4-14T20:56:42Z</time></trkpt>
<trkpt lat="46.574218646" lon="7.913032668"><ele></ele><time>2014-4-14T20:56:45Z</time></trkpt>
<trkpt lat="46.571483379" lon="7.910986813"><ele></ele><time>2014-4-14T20:56:48Z</time></trkpt>
<trkpt lat="46.565800114" lon="7.908328660"><ele></ele><time>2014-4-14T20:56:51Z</time></trkpt>
<trkpt lat="46.563234497" lon="7.906584805"><ele></ele><time>2014-4-14T20:56:54Z</time></trkpt>
<trkpt lat="46.562124398" lon="7.905284101"><ele></ele><time>2014-4-14T20:56:57Z</time></trkpt>
<trkpt lat="46.556166960" lon="7.903628759"><ele></ele><time>2014-4-14T20:57:0Z</time></trkpt>
<trkpt lat="46.553348545" lon="7.902105013"><ele></ele><time>2014-4-14T20:57:3Z</time></trkpt>
<trkpt lat="46.549573001" lon="7.901433790"><ele></ele><time>2014-4-14T20:57:6Z</time></trkpt>
<trkpt lat="46.549543580" lon="7.899829745"><ele></ele><time>2014-4-14T20:57:9Z</time></trkpt>
<trkpt lat="46.551797641" lon="7.898571035"><ele></ele><time>2014-4-14T20:57:12Z</time></trkpt>
<trkpt lat="46.553749787" lon="7.898535496"><ele></ele><time>2014-4-14T20:57:15Z</time></trkpt>
<trkpt lat="46.554674394" lon="7.899025837"><ele></ele><time>2014-4-14T20:57:18Z</time></trkpt>
<trkpt lat="46.554726446" lon="7.899495726"><ele></ele><time>2014-4-14T20:57:21Z</time></trkpt>
<trkpt lat="46.555810394" lon="7.900626445"><ele></ele><time>2014-4-14T20:57:24Z</time></trkpt>
<trkpt lat="46.559682246" lon="7.901937459"><ele></ele><time>2014-4-14T20:57:27Z</time></trkpt>
<trkpt lat="46.560271326" lon="7.903064070"><ele></ele><time>2014-4-14T20:57:30Z</time></trkpt>
<trkpt lat="46.562529663" lon="7.905170191"><ele></ele><time>2014-4-14T20:57:33Z</time></trkpt>
<trkpt lat="46.565064434" lon="7.905661622"><ele></ele><time>2014-4-14T20:57:36Z</time></trkpt>
<trkpt lat="46.567164771" lon="7.906801393"><ele></ele><time>2014-4-14T20:57:39Z</time></trkpt>
<trkpt lat="46.570872087" lon="7.906546500"><ele></ele><time>2014-4-14T20:57:42Z</time></trkpt>
<trkpt lat="46.574270530" lon="7.907006415"><ele></ele><time>2014-4-14T20:57:45Z</time></trkpt>
<trkpt lat="46.576692900" lon="7.908592774"><ele></ele><time>2014-4-14T20:57:48Z</time></trkpt>
<trkpt lat="46.579164471" lon="7.909123013"><ele></ele><time>2014-4-14T20:57:51Z</time></trkpt>
<trkpt lat="46.582450680" lon="7.910638964"><ele></ele><time>2014-4-14T20:57:54Z</time></trkpt>
<trkpt lat="46.584988972" lon="7.910269657"><ele></ele><time>2014-4-14T20:57:57Z</time></trkpt>
<trkpt lat="46.587494407" lon="7.909169365"><ele></ele><time>2014-4-14T20:58:0Z</time></trkpt>
<trkpt lat="46.588623282" lon="7.908096230"><ele></ele><time>2014-4-14T20:58:3Z</time></trkpt>
<trkpt lat="46.589829102" lon="7.907989193"><ele></ele><time>2014-4-14T20:58:6Z</time></trkpt>
<trkpt lat="46.591028301" lon="7.907321071"><ele></ele><time>2014-4-14T20:58:9Z</time></trkpt>
<trkpt lat="46.591837239" lon="7.907484686"><ele></ele><time>2014-4-14T20:58:12Z</time></trkpt>
<trkpt lat="46.592781879" lon="7.907466749"><ele></ele><time>2014-4-14T20:58:15Z</time></trkpt>
<trkpt lat="46.593781086" lon="7.907305816"><ele></ele><time>2014-4-14T20:58:18Z</time></trkpt>
<trkpt lat="46.598169850" lon="7.907591807"><ele></ele><time>2014-4-14T20:58:21Z</time></trkpt>
<trkpt lat="46.598907709" lon="7.907532882"><ele></ele><time>2014-4-14T20:58:24Z</time></trkpt>
<trkpt lat="46.600152925" lon="7.906603999"><ele></ele><time>2014-4-14T20:58:27Z</time></trkpt>
<trkpt lat="46.598792961" lon="7.909176322"><ele></ele><time>2014-4-14T20:58:30Z</time></trkpt>
<trkpt lat="46.598655162" lon="7.909866823"><ele></ele><time>2014-4-14T20:58:33Z</time></trkpt>
<trkpt lat="46.598960431" lon="7.910013003"><ele></ele><time>2014-4-14T20:58:36Z</time></trkpt>
<trkpt lat="46.599225383" lon="7.909036512"><ele></ele><time>2014-4-14T20:58:39Z</time></trkpt>
<trkpt lat="46.600392899" lon="7.907323921"><ele></ele><time>2014-4-14T20:58:42Z</time></trkpt>
<trkpt lat="46.601447174" lon="7.906876244"><ele></ele><time>2014-4-14T20:58:45Z</time></trkpt>
<trkpt lat="46.603325978" lon="7.907192744"><ele></ele><time>2014-4-14T20:58:48Z</time></trkpt>
<trkpt lat="46.604361646" lon="7.906914549"><ele></ele><time>2014-4-14T20:58:51Z</time></trkpt>
<trkpt lat="46.605552714" lon="7.906037299"><ele></ele><time>2014-4-14T20:58:54Z</time></trkpt>
<trkpt lat="46.607669313" lon="7.905402957"><ele></ele><time>2014-4-14T20:58:57Z</time></trkpt>
<trkpt lat="46.608242299" lon="7.903867643"><ele></ele><time>2014-4-14T20:59:0Z</time></trkpt>
<trkpt lat="46.608865662" lon="7.903220309"><ele></ele><time>2014-4-14T20:59:3Z</time></trkpt>
<trkpt lat="46.610494684" lon="7.903025430"><ele></ele><time>2014-4-14T20:59:6Z</time></trkpt>
<trkpt lat="46.611982221" lon="7.902228897"><ele></ele><time>2014-4-14T20:59:9Z</time></trkpt>
<trkpt lat="46.614180375" lon="7.903657593"><ele></ele><time>2014-4-14T20:59:12Z</time></trkpt>
<trkpt lat="46.616343325" lon="7.902684035"><ele></ele><time>2014-4-14T20:59:15Z</time></trkpt>
<trkpt lat="46.618011743" lon="7.903847275"><ele></ele><time>2014-4-14T20:59:18Z</time></trkpt>
<trkpt lat="46.619860455" lon="7.902727285"><ele></ele><time>2014-4-14T20:59:21Z</time></trkpt>
<trkpt lat="46.620830242" lon="7.903153421"><ele></ele><time>2014-4-14T20:59:24Z</time></trkpt>
<trkpt lat="46.621850403" lon="7.904467788"><ele></ele><time>2014-4-14T20:59:27Z</time></trkpt>
<trkpt lat="46.623937329" lon="7.904485809"><ele></ele><time>2014-4-14T20:59:30Z</time></trkpt>
<trkpt lat="46.625078609" lon="7.904769788"><ele></ele><time>2014-4-14T20:59:33Z</time></trkpt>
<trkpt lat="46.627194202" lon="7.904370222"><ele></ele><time>2014-4-14T20:59:36Z</time></trkpt>
<trkpt lat="46.628862536" lon="7.903379146"><ele></ele><time>2014-4-14T20:59:39Z</time></trkpt>
<trkpt lat="46.630635057" lon="7.901069932"><ele></ele><time>2014-4-14T20:59:42Z</time></trkpt>
<trkpt lat="46.632808819" lon="7.899638973"><ele></ele><time>2014-4-14T20:59:45Z</time></trkpt>
</trkseg></trk></gpx>